createdAt,value
2017-09-30T00:00:39.702Z,11.67
2017-09-30T00:03:07.705Z,12.90
2017-09-30T00:05:35.655Z,12.27
2017-09-30T00:08:03.613Z,9.57
2017-09-30T00:10:32.301Z,9.20
2017-09-30T00:13:01.049Z,12.53
2017-09-30T00:15:28.976Z,8.00
2017-09-30T00:17:56.940Z,10.60
2017-09-30T00:20:24.859Z,12.03
2017-09-30T00:22:53.602Z,14.03
2017-09-30T00:25:21.519Z,10.93
2017-09-30T00:27:49.523Z,10.60
2017-09-30T00:30:17.470Z,13.60
2017-09-30T00:32:45.460Z,9.47
2017-09-30T00:35:13.397Z,15.37
2017-09-30T00:37:41.372Z,15.50
2017-09-30T00:40:09.349Z,9.90
2017-09-30T00:42:37.322Z,7.50
2017-09-30T00:45:05.237Z,8.03
2017-09-30T00:47:34.611Z,8.00
2017-09-30T00:50:02.583Z,11.00
2017-09-30T00:52:30.586Z,9.33
2017-09-30T00:54:59.178Z,10.73
2017-09-30T00:57:27.202Z,12.73
2017-09-30T00:59:58.197Z,13.00
2017-09-30T01:02:26.257Z,8.63
2017-09-30T01:04:54.160Z,10.70
2017-09-30T01:07:25.998Z,11.93
2017-09-30T01:09:54.532Z,9.07
2017-09-30T01:12:22.479Z,14.20
2017-09-30T01:14:50.392Z,8.70
2017-09-30T01:17:19.122Z,9.87
2017-09-30T01:19:47.214Z,11.23
2017-09-30T01:22:15.182Z,8.87
2017-09-30T01:24:43.232Z,10.90
2017-09-30T01:27:11.206Z,8.63
2017-09-30T01:29:39.209Z,9.90
2017-09-30T01:32:07.186Z,9.03
2017-09-30T01:34:35.199Z,9.73
2017-09-30T01:37:04.116Z,7.67
2017-09-30T01:39:32.132Z,9.17
2017-09-30T01:42:00.817Z,10.50
2017-09-30T01:44:29.604Z,8.80
2017-09-30T01:46:57.554Z,9.40
2017-09-30T01:49:25.592Z,9.70
2017-09-30T01:51:53.541Z,13.00
2017-09-30T01:54:21.545Z,14.73
2017-09-30T01:56:49.594Z,12.07
2017-09-30T01:59:17.637Z,12.77
2017-09-30T02:01:46.392Z,14.00
2017-09-30T02:04:14.430Z,9.60
2017-09-30T02:06:42.531Z,9.57
2017-09-30T02:09:10.545Z,14.87
2017-09-30T02:11:39.234Z,12.33
2017-09-30T02:14:07.965Z,13.60
2017-09-30T02:16:36.050Z,20.47
2017-09-30T02:19:03.979Z,19.00
2017-09-30T02:21:31.967Z,11.17
2017-09-30T02:24:00.868Z,10.93
2017-09-30T02:26:28.838Z,12.30
2017-09-30T02:28:56.746Z,15.23
2017-09-30T02:31:24.733Z,11.17
2017-09-30T02:33:52.704Z,13.17
2017-09-30T02:36:20.666Z,10.60
2017-09-30T02:38:48.577Z,10.80
2017-09-30T02:41:16.567Z,14.80
2017-09-30T02:43:44.476Z,13.80
2017-09-30T02:46:13.240Z,16.80
2017-09-30T02:48:41.161Z,26.50
2017-09-30T02:51:09.130Z,23.30
2017-09-30T02:53:37.042Z,21.40
2017-09-30T02:56:05.000Z,18.87
2017-09-30T02:58:34.178Z,18.13
2017-09-30T03:01:02.134Z,24.53
2017-09-30T03:03:30.311Z,15.83
2017-09-30T03:05:58.268Z,16.53
2017-09-30T03:08:26.952Z,20.33
2017-09-30T03:10:54.927Z,16.90
2017-09-30T03:13:23.614Z,11.83
2017-09-30T03:15:51.627Z,9.33
2017-09-30T03:18:19.578Z,8.87
2017-09-30T03:20:47.583Z,14.53
2017-09-30T03:23:15.517Z,11.70
2017-09-30T03:25:43.451Z,11.47
2017-09-30T03:28:17.467Z,11.37
2017-09-30T03:30:46.161Z,11.00
2017-09-30T03:33:14.135Z,11.30
2017-09-30T03:35:42.057Z,11.17
2017-09-30T03:38:10.026Z,12.23
2017-09-30T03:40:37.935Z,11.80
2017-09-30T03:43:05.911Z,11.47
2017-09-30T03:45:34.583Z,11.50
2017-09-30T03:48:03.325Z,12.20
2017-09-30T03:50:31.243Z,10.80
2017-09-30T03:52:59.213Z,10.70
2017-09-30T03:55:27.883Z,12.50
2017-09-30T03:57:55.937Z,6.87
2017-09-30T04:00:23.850Z,6.73
2017-09-30T04:02:52.577Z,6.50
2017-09-30T04:05:20.516Z,12.50
2017-09-30T04:07:48.468Z,7.20
2017-09-30T04:10:17.142Z,7.40
2017-09-30T04:12:45.097Z,11.23
2017-09-30T04:15:13.007Z,8.53
2017-09-30T04:17:40.978Z,7.60
2017-09-30T04:20:08.890Z,10.63
2017-09-30T04:22:36.838Z,8.23
2017-09-30T04:25:04.749Z,8.83
2017-09-30T04:27:32.811Z,7.97
2017-09-30T04:30:00.718Z,10.80
2017-09-30T04:32:28.672Z,12.17
2017-09-30T04:34:56.577Z,9.47
2017-09-30T04:37:24.537Z,6.80
2017-09-30T04:39:52.500Z,7.90
2017-09-30T04:42:21.157Z,7.93
2017-09-30T04:44:49.104Z,9.90
2017-09-30T04:47:16.984Z,8.57
2017-09-30T04:49:44.928Z,7.60
2017-09-30T04:52:12.821Z,5.87
2017-09-30T04:54:40.778Z,7.03
2017-09-30T04:57:12.712Z,7.40
2017-09-30T04:59:40.667Z,6.47
2017-09-30T05:02:08.575Z,7.77
2017-09-30T05:04:44.258Z,5.33
2017-09-30T05:07:20.895Z,5.47
2017-09-30T05:09:51.692Z,6.97
2017-09-30T05:12:20.956Z,6.23
2017-09-30T05:14:52.119Z,7.03
2017-09-30T05:17:24.583Z,5.77
2017-09-30T05:19:57.219Z,6.70
2017-09-30T05:22:31.706Z,6.60
2017-09-30T05:25:00.999Z,7.50
2017-09-30T05:27:35.736Z,5.13
2017-09-30T05:30:05.515Z,13.20
2017-09-30T05:32:34.308Z,8.13
2017-09-30T05:35:02.301Z,8.87
2017-09-30T05:37:30.218Z,7.20
2017-09-30T05:39:58.201Z,11.80
2017-09-30T05:42:26.124Z,7.73
2017-09-30T05:44:54.090Z,10.70
2017-09-30T05:47:22.072Z,8.90
2017-09-30T05:49:50.815Z,6.73
2017-09-30T05:52:18.758Z,8.70
2017-09-30T05:54:46.770Z,5.60
2017-09-30T05:57:14.714Z,5.83
2017-09-30T05:59:42.691Z,5.83
2017-09-30T06:02:10.620Z,6.50
2017-09-30T06:04:38.529Z,9.03
2017-09-30T06:07:06.527Z,7.00
2017-09-30T06:09:34.474Z,6.97
2017-09-30T06:12:02.462Z,7.43
2017-09-30T06:14:30.385Z,6.23
2017-09-30T06:17:01.835Z,6.00
2017-09-30T06:19:29.802Z,6.93
2017-09-30T06:21:57.800Z,5.60
2017-09-30T06:24:25.731Z,10.60
2017-09-30T06:26:53.729Z,7.03
2017-09-30T06:29:21.659Z,9.07
2017-09-30T06:31:49.658Z,6.60
2017-09-30T06:34:17.612Z,6.27
2017-09-30T06:36:45.615Z,8.17
2017-09-30T06:39:13.535Z,6.97
2017-09-30T06:41:41.550Z,5.90
2017-09-30T06:44:09.494Z,6.10
2017-09-30T06:46:37.743Z,14.00
2017-09-30T06:49:06.416Z,10.27
2017-09-30T06:51:34.396Z,7.63
2017-09-30T06:54:03.078Z,7.03
2017-09-30T06:56:31.826Z,8.87
2017-09-30T06:58:59.750Z,9.13
2017-09-30T07:01:27.789Z,15.13
2017-09-30T07:03:55.764Z,15.00
2017-09-30T07:06:23.757Z,9.53
2017-09-30T07:08:52.718Z,9.40
2017-09-30T07:11:21.674Z,10.30
2017-09-30T07:13:49.776Z,12.20
2017-09-30T07:16:17.702Z,10.80
2017-09-30T07:18:45.683Z,11.30
2017-09-30T07:21:13.581Z,15.30
2017-09-30T07:23:41.544Z,8.87
2017-09-30T07:26:09.430Z,9.97
2017-09-30T07:28:37.441Z,12.60
2017-09-30T07:31:05.394Z,13.20
2017-09-30T07:33:33.375Z,8.53
2017-09-30T07:36:01.301Z,7.83
2017-09-30T07:38:29.446Z,9.83
2017-09-30T07:40:57.494Z,10.97
2017-09-30T07:43:26.232Z,11.17
2017-09-30T07:45:54.208Z,14.73
2017-09-30T07:48:22.124Z,10.07
2017-09-30T07:50:51.713Z,9.43
2017-09-30T07:53:19.711Z,14.30
2017-09-30T07:55:47.584Z,12.30
2017-09-30T07:58:15.530Z,11.80
2017-09-30T08:00:43.464Z,9.00
2017-09-30T08:03:11.549Z,7.80
2017-09-30T08:05:39.440Z,8.97
2017-09-30T08:08:07.465Z,7.17
2017-09-30T08:10:35.380Z,12.63
2017-09-30T08:13:04.137Z,9.50
2017-09-30T08:15:32.078Z,7.70
2017-09-30T08:17:59.989Z,9.40
2017-09-30T08:20:28.069Z,8.20
2017-09-30T08:22:56.160Z,7.37
2017-09-30T08:25:24.178Z,11.73
2017-09-30T08:27:52.168Z,10.40
2017-09-30T08:30:20.140Z,6.13
2017-09-30T08:32:48.098Z,9.10
2017-09-30T08:35:19.443Z,8.27
2017-09-30T08:37:47.385Z,6.20
2017-09-30T08:40:15.429Z,5.10
2017-09-30T08:42:44.267Z,6.57
2017-09-30T08:45:16.171Z,6.17
2017-09-30T08:47:44.221Z,5.67
2017-09-30T08:50:12.332Z,6.27
2017-09-30T08:52:40.324Z,8.40
2017-09-30T08:55:08.406Z,5.20
2017-09-30T08:57:36.531Z,6.20
2017-09-30T09:00:04.659Z,7.30
2017-09-30T09:02:32.641Z,6.80
2017-09-30T09:05:00.615Z,5.93
2017-09-30T09:07:28.553Z,5.87
2017-09-30T09:09:56.535Z,5.07
2017-09-30T09:12:24.542Z,7.60
2017-09-30T09:14:52.535Z,5.53
2017-09-30T09:17:20.678Z,6.63
2017-09-30T09:19:48.893Z,6.33
2017-09-30T09:22:16.839Z,5.23
2017-09-30T09:24:44.833Z,6.03
2017-09-30T09:27:13.993Z,6.23
2017-09-30T09:29:41.962Z,5.93
2017-09-30T09:32:09.996Z,7.80
2017-09-30T09:34:39.543Z,7.70
2017-09-30T09:37:09.827Z,6.57
2017-09-30T09:39:38.071Z,5.60
2017-09-30T09:42:06.169Z,7.57
2017-09-30T09:44:34.156Z,6.30
2017-09-30T09:47:03.452Z,5.67
2017-09-30T09:49:31.812Z,6.30
2017-09-30T09:51:59.894Z,6.93
2017-09-30T09:54:27.843Z,5.50
2017-09-30T09:56:55.873Z,9.40
2017-09-30T09:59:23.849Z,8.47
2017-09-30T10:01:51.873Z,11.10
2017-09-30T10:04:23.403Z,7.70
2017-09-30T10:06:51.408Z,7.43
2017-09-30T10:09:19.686Z,6.30
2017-09-30T10:11:47.647Z,7.53
2017-09-30T10:14:16.470Z,7.10
2017-09-30T10:16:59.468Z,6.20
2017-09-30T10:19:27.396Z,8.97
2017-09-30T10:21:59.740Z,9.00
2017-09-30T10:24:33.285Z,8.70
2017-09-30T10:27:05.712Z,8.80
2017-09-30T10:29:39.042Z,8.23
2017-09-30T10:32:14.160Z,7.50
2017-09-30T10:34:49.546Z,10.63
2017-09-30T10:37:20.219Z,8.03
2017-09-30T10:39:49.299Z,7.60
2017-09-30T10:42:21.801Z,8.80
2017-09-30T10:44:56.372Z,6.03
2017-09-30T10:47:27.133Z,5.77
2017-09-30T10:50:00.714Z,7.13
2017-09-30T10:52:32.422Z,7.57
2017-09-30T10:55:04.352Z,5.70
2017-09-30T10:57:38.617Z,9.03
2017-09-30T11:00:11.758Z,7.27
2017-09-30T11:02:48.456Z,8.03
2017-09-30T11:05:23.631Z,8.97
2017-09-30T11:07:55.568Z,8.50
2017-09-30T11:10:29.562Z,7.73
2017-09-30T11:12:58.145Z,9.33
2017-09-30T11:15:27.154Z,9.30
2017-09-30T11:18:02.208Z,10.00
2017-09-30T11:20:37.225Z,11.53
2017-09-30T11:23:07.324Z,2.77
2017-09-30T11:25:41.953Z,2.80
2017-09-30T11:28:11.966Z,2.40
2017-09-30T11:30:45.834Z,3.27
2017-09-30T11:33:21.738Z,4.63
2017-09-30T11:35:52.051Z,2.90
2017-09-30T11:38:21.961Z,3.00
2017-09-30T11:40:53.523Z,3.10
2017-09-30T11:43:24.464Z,6.20
2017-09-30T11:46:00.224Z,3.23
2017-09-30T11:48:37.247Z,3.20
2017-09-30T11:51:07.254Z,3.00
2017-09-30T11:53:35.685Z,3.47
2017-09-30T11:56:10.294Z,4.13
2017-09-30T11:58:42.995Z,7.32
2017-09-30T12:01:16.903Z,6.50
2017-09-30T12:03:45.256Z,6.75
2017-09-30T12:06:17.148Z,4.63
2017-09-30T12:08:50.635Z,6.95
2017-09-30T12:11:24.293Z,6.53
2017-09-30T12:13:53.520Z,8.85
2017-09-30T12:16:27.121Z,6.65
2017-09-30T12:18:55.715Z,7.65
2017-09-30T12:21:24.056Z,5.35
2017-09-30T12:23:59.112Z,5.95
2017-09-30T12:26:27.867Z,7.93
2017-09-30T12:28:57.325Z,6.25
2017-09-30T12:31:28.833Z,11.52
2017-09-30T12:34:00.698Z,8.95
2017-09-30T12:36:35.716Z,17.52
2017-09-30T12:39:09.643Z,8.60
2017-09-30T12:41:38.626Z,8.75
2017-09-30T12:44:11.880Z,8.77
2017-09-30T12:46:46.589Z,16.83
2017-09-30T12:49:22.298Z,15.07
2017-09-30T12:51:50.966Z,13.73
2017-09-30T12:54:24.321Z,10.20
2017-09-30T12:56:58.046Z,16.27
2017-09-30T12:59:27.601Z,16.13
2017-09-30T13:02:00.980Z,22.33
2017-09-30T13:04:33.971Z,14.70
2017-09-30T13:07:05.795Z,15.70
2017-09-30T13:09:37.809Z,16.27
2017-09-30T13:12:12.389Z,11.95
2017-09-30T13:14:47.219Z,13.90
2017-09-30T13:17:21.847Z,9.80
2017-09-30T13:19:50.552Z,14.23
2017-09-30T13:22:22.096Z,14.87
2017-09-30T13:24:50.213Z,11.57
2017-09-30T13:27:23.510Z,13.13
2017-09-30T13:29:52.757Z,14.05
2017-09-30T13:32:22.719Z,12.53
2017-09-30T13:34:55.317Z,17.40
2017-09-30T13:37:30.713Z,16.17
2017-09-30T13:39:59.143Z,14.03
2017-09-30T13:42:33.745Z,10.33
2017-09-30T13:45:08.421Z,14.97
2017-09-30T13:47:43.381Z,14.93
2017-09-30T13:50:12.390Z,21.17
2017-09-30T13:52:43.182Z,9.02
2017-09-30T13:55:12.520Z,11.25
2017-09-30T13:57:47.737Z,12.02
2017-09-30T14:00:17.383Z,12.67
2017-09-30T14:02:49.908Z,11.35
2017-09-30T14:05:26.708Z,11.90
2017-09-30T14:07:55.305Z,9.10
2017-09-30T14:10:25.879Z,10.18
2017-09-30T14:12:54.224Z,6.45
2017-09-30T14:15:26.056Z,7.50
2017-09-30T14:17:55.105Z,9.70
2017-09-30T14:20:27.482Z,8.07
2017-09-30T14:22:58.836Z,8.25
2017-09-30T14:25:35.839Z,6.57
2017-09-30T14:28:05.600Z,6.20
2017-09-30T14:30:39.255Z,15.85
2017-09-30T14:33:09.895Z,7.43
2017-09-30T14:35:39.539Z,5.05
2017-09-30T14:38:15.091Z,5.72
2017-09-30T14:40:47.125Z,7.60
2017-09-30T14:43:24.939Z,8.98
2017-09-30T14:45:54.169Z,9.47
2017-09-30T14:48:23.391Z,16.87
2017-09-30T14:50:58.466Z,10.27
2017-09-30T14:53:27.374Z,10.52
2017-09-30T14:55:56.428Z,9.07
2017-09-30T14:58:27.600Z,11.15
2017-09-30T15:00:56.139Z,11.77
2017-09-30T15:03:24.449Z,5.57
2017-09-30T15:05:53.930Z,10.27
2017-09-30T15:08:22.454Z,12.40
2017-09-30T15:10:50.825Z,12.40
2017-09-30T15:13:19.188Z,12.75
2017-09-30T15:15:48.737Z,13.25
2017-09-30T15:18:17.069Z,8.88
2017-09-30T15:20:45.161Z,6.68
2017-09-30T15:23:13.224Z,9.10
2017-09-30T15:25:41.703Z,12.07
2017-09-30T15:28:13.950Z,12.93
2017-09-30T15:30:42.039Z,7.65
2017-09-30T15:33:10.874Z,9.45
2017-09-30T15:35:38.930Z,6.80
2017-09-30T15:38:07.325Z,8.55
2017-09-30T15:40:35.356Z,9.77
2017-09-30T15:43:03.463Z,11.52
2017-09-30T15:45:31.583Z,8.13
2017-09-30T15:47:59.686Z,7.30
2017-09-30T15:50:28.498Z,10.70
2017-09-30T15:52:56.918Z,14.20
2017-09-30T15:55:24.988Z,8.65
2017-09-30T15:57:53.107Z,14.30
2017-09-30T16:00:21.154Z,12.70
2017-09-30T16:02:50.063Z,11.98
2017-09-30T16:05:18.115Z,10.57
2017-09-30T16:07:47.390Z,13.38
2017-09-30T16:10:15.426Z,12.90
2017-09-30T16:12:43.740Z,15.02
2017-09-30T16:15:11.816Z,9.73
2017-09-30T16:17:39.901Z,12.88
2017-09-30T16:20:07.978Z,7.25
2017-09-30T16:22:36.064Z,12.57
2017-09-30T16:25:12.414Z,7.95
2017-09-30T16:27:47.876Z,8.13
2017-09-30T16:30:20.403Z,13.57
2017-09-30T16:32:48.696Z,5.82
2017-09-30T16:35:16.707Z,9.60
2017-09-30T16:37:44.825Z,11.55
2017-09-30T16:40:12.839Z,12.27
2017-09-30T16:42:40.925Z,14.55
2017-09-30T16:45:08.956Z,15.43
2017-09-30T16:47:37.514Z,11.23
2017-09-30T16:50:05.562Z,9.45
2017-09-30T16:52:33.614Z,9.60
2017-09-30T16:55:01.630Z,6.00
2017-09-30T16:57:29.665Z,11.32
2017-09-30T16:59:57.816Z,9.60
2017-09-30T17:02:26.275Z,8.38
2017-09-30T17:04:54.301Z,16.20
2017-09-30T17:07:26.472Z,13.18
2017-09-30T17:09:55.279Z,14.18
2017-09-30T17:12:23.378Z,11.15
2017-09-30T17:14:53.925Z,13.20
2017-09-30T17:17:22.069Z,14.10
2017-09-30T17:19:50.107Z,13.80
2017-09-30T17:22:18.142Z,15.15
2017-09-30T17:24:46.138Z,15.95
2017-09-30T17:27:14.093Z,16.20
2017-09-30T17:29:42.146Z,13.43
2017-09-30T17:32:10.102Z,17.50
2017-09-30T17:34:38.145Z,14.57
2017-09-30T17:37:06.169Z,17.62
2017-09-30T17:39:34.869Z,11.02
2017-09-30T17:42:02.835Z,14.20
2017-09-30T17:44:30.899Z,14.07
2017-09-30T17:46:58.942Z,14.10
2017-09-30T17:49:27.234Z,18.08
2017-09-30T17:51:55.225Z,19.65
2017-09-30T17:54:23.280Z,24.80
2017-09-30T17:56:51.250Z,16.98
2017-09-30T17:59:19.304Z,22.33
2017-09-30T18:01:47.263Z,15.48
2017-09-30T18:04:18.808Z,15.82
2017-09-30T18:06:47.959Z,16.60
2017-09-30T18:09:16.216Z,18.30
2017-09-30T18:11:44.165Z,16.83
2017-09-30T18:14:12.234Z,18.45
2017-09-30T18:16:40.894Z,13.98
2017-09-30T18:19:08.955Z,19.17
2017-09-30T18:21:37.914Z,14.32
2017-09-30T18:24:06.275Z,16.17
2017-09-30T18:26:34.277Z,22.37
2017-09-30T18:29:12.332Z,16.62
2017-09-30T18:31:46.346Z,16.73
2017-09-30T18:34:19.316Z,21.33
2017-09-30T18:36:51.314Z,20.90
2017-09-30T18:39:23.319Z,17.50
2017-09-30T18:41:53.888Z,20.65
2017-09-30T18:44:25.088Z,17.98
2017-09-30T18:46:53.089Z,25.88
2017-09-30T18:49:21.070Z,17.83
2017-09-30T18:51:49.025Z,20.83
2017-09-30T18:54:17.031Z,20.58
2017-09-30T18:56:45.726Z,15.90
2017-09-30T18:59:13.699Z,22.65
2017-09-30T19:01:41.648Z,16.48
2017-09-30T19:04:10.405Z,11.90
2017-09-30T19:06:38.546Z,18.30
2017-09-30T19:09:06.537Z,16.05
2017-09-30T19:11:34.512Z,15.90
2017-09-30T19:14:02.751Z,12.90
2017-09-30T19:16:30.695Z,14.77
2017-09-30T19:19:00.323Z,22.75
2017-09-30T19:21:28.232Z,23.77
2017-09-30T19:23:56.233Z,16.92
2017-09-30T19:26:24.178Z,16.45
2017-09-30T19:28:56.823Z,14.20
2017-09-30T19:31:24.762Z,14.43
2017-09-30T19:33:53.514Z,14.20
2017-09-30T19:36:21.489Z,19.20
2017-09-30T19:38:49.499Z,17.83
2017-09-30T19:41:17.503Z,11.38
2017-09-30T19:43:45.545Z,24.02
2017-09-30T19:46:13.524Z,21.52
2017-09-30T19:48:41.558Z,16.80
2017-09-30T19:51:09.626Z,11.73
2017-09-30T19:53:37.600Z,23.48
2017-09-30T19:56:05.595Z,13.25
2017-09-30T19:58:36.565Z,16.65
2017-09-30T20:01:04.555Z,12.80
2017-09-30T20:03:32.498Z,22.20
2017-09-30T20:06:00.469Z,12.68
2017-09-30T20:08:28.460Z,15.52
2017-09-30T20:10:56.451Z,20.35
2017-09-30T20:13:24.367Z,12.00
2017-09-30T20:15:52.423Z,11.12
2017-09-30T20:18:20.360Z,8.95
2017-09-30T20:20:48.333Z,9.75
2017-09-30T20:23:16.270Z,8.38
2017-09-30T20:25:44.260Z,10.00
2017-09-30T20:28:12.295Z,12.02
2017-09-30T20:30:40.327Z,12.10
2017-09-30T20:33:08.254Z,12.75
2017-09-30T20:35:36.241Z,16.58
2017-09-30T20:38:04.150Z,8.95
2017-09-30T20:40:32.148Z,9.80
2017-09-30T20:43:02.356Z,13.57
2017-09-30T20:45:30.496Z,13.10
2017-09-30T20:47:58.428Z,21.17
2017-09-30T20:50:26.456Z,14.77
2017-09-30T20:52:54.396Z,20.60
2017-09-30T20:55:22.364Z,15.60
2017-09-30T20:57:50.411Z,14.27
2017-09-30T21:00:18.395Z,18.48
2017-09-30T21:02:46.332Z,17.48
2017-09-30T21:05:14.339Z,22.27
2017-09-30T21:07:42.304Z,20.05
2017-09-30T21:10:10.258Z,20.10
2017-09-30T21:12:38.272Z,18.17
2017-09-30T21:15:06.231Z,17.70
2017-09-30T21:17:34.226Z,24.42
2017-09-30T21:20:02.158Z,21.65
2017-09-30T21:22:30.154Z,20.33
2017-09-30T21:24:58.095Z,24.87
2017-09-30T21:27:29.828Z,23.62
2017-09-30T21:29:57.807Z,22.13
2017-09-30T21:32:25.774Z,25.10
2017-09-30T21:34:53.740Z,16.85
2017-09-30T21:37:21.721Z,20.10
2017-09-30T21:39:49.749Z,19.62
2017-09-30T21:42:17.757Z,17.95
2017-09-30T21:44:45.772Z,17.30
2017-09-30T21:47:13.751Z,26.23
2017-09-30T21:49:41.700Z,25.10
2017-09-30T21:52:09.714Z,24.30
2017-09-30T21:54:37.646Z,20.30
2017-09-30T21:57:05.742Z,21.40
2017-09-30T21:59:33.678Z,22.20
2017-09-30T22:02:01.647Z,24.20
2017-09-30T22:04:30.754Z,23.10
2017-09-30T22:06:59.283Z,28.10
2017-09-30T22:09:27.268Z,25.05
2017-09-30T22:12:02.719Z,26.62
2017-09-30T22:14:38.325Z,23.45
2017-09-30T22:17:14.067Z,22.00
2017-09-30T22:19:48.849Z,26.83
2017-09-30T22:22:22.854Z,20.30
2017-09-30T22:24:57.249Z,26.58
2017-09-30T22:27:33.508Z,29.40
2017-09-30T22:30:06.020Z,25.92
2017-09-30T22:32:34.203Z,29.67
2017-09-30T22:35:02.182Z,31.40
2017-09-30T22:37:31.423Z,30.08
2017-09-30T22:40:00.112Z,28.42
2017-09-30T22:42:28.168Z,33.05
2017-09-30T22:44:57.918Z,24.55
2017-09-30T22:47:26.665Z,26.83
2017-09-30T22:49:54.586Z,22.83
2017-09-30T22:52:23.300Z,24.23
2017-09-30T22:54:51.245Z,25.17
2017-09-30T22:57:20.784Z,23.80
2017-09-30T22:59:48.913Z,19.08
2017-09-30T23:02:18.496Z,21.05
2017-09-30T23:04:46.423Z,17.62
2017-09-30T23:07:14.488Z,22.83
2017-09-30T23:09:42.421Z,29.67
2017-09-30T23:12:10.445Z,19.40
2017-09-30T23:14:38.365Z,23.65
2017-09-30T23:17:06.350Z,23.98
2017-09-30T23:19:35.048Z,20.00
2017-09-30T23:22:03.040Z,18.60
2017-09-30T23:24:31.917Z,17.92
2017-09-30T23:26:59.911Z,16.73
2017-09-30T23:29:27.881Z,16.62
2017-09-30T23:31:55.860Z,21.25
2017-09-30T23:34:23.808Z,14.48
2017-09-30T23:36:51.989Z,15.25
2017-09-30T23:39:19.950Z,15.77
2017-09-30T23:41:48.199Z,16.30
2017-09-30T23:44:16.901Z,12.20
2017-09-30T23:46:44.975Z,12.57
2017-09-30T23:49:12.956Z,20.95
2017-09-30T23:51:40.940Z,11.02
2017-09-30T23:54:08.964Z,15.52
2017-09-30T23:56:37.661Z,11.45
2017-09-30T23:59:06.496Z,13.00
